sensor_id;sensor_type;location;lat;lon;timestamp;P1;durP1;ratioP1;P2;durP2;ratioP2
26600;SDS011;14241;49.260;10.496;2024-02-14T00:02:12;7.20;;;6.07;;
26600;SDS011;14241;49.260;10.496;2024-02-14T00:04:37;8.52;;;6.20;;
26600;SDS011;14241;49.260;10.496;2024-02-14T00:07:03;7.53;;;6.22;;
26600;SDS011;14241;49.260;10.496;2024-02-14T00:09:29;7.03;;;6.20;;
26600;SDS011;14241;49.260;10.496;2024-02-14T00:11:54;9.63;;;6.03;;
26600;SDS011;14241;49.260;10.496;2024-02-14T00:14:19;6.95;;;6.10;;
26600;SDS011;14241;49.260;10.496;2024-02-14T00:16:45;8.90;;;6.28;;
26600;SDS011;14241;49.260;10.496;2024-02-14T00:19:10;8.63;;;6.65;;
26600;SDS011;14241;49.260;10.496;2024-02-14T00:21:37;10.77;;;6.68;;
26600;SDS011;14241;49.260;10.496;2024-02-14T00:24:03;9.13;;;7.13;;
26600;SDS011;14241;49.260;10.496;2024-02-14T00:26:30;9.35;;;6.65;;
26600;SDS011;14241;49.260;10.496;2024-02-14T00:28:55;7.22;;;6.32;;
26600;SDS011;14241;49.260;10.496;2024-02-14T00:31:20;10.02;;;6.65;;
26600;SDS011;14241;49.260;10.496;2024-02-14T00:33:58;9.90;;;6.32;;
26600;SDS011;14241;49.260;10.496;2024-02-14T00:36:23;12.43;;;6.32;;
26600;SDS011;14241;49.260;10.496;2024-02-14T00:38:48;8.63;;;6.97;;
26600;SDS011;14241;49.260;10.496;2024-02-14T00:41:13;20.20;;;11.55;;
26600;SDS011;14241;49.260;10.496;2024-02-14T00:43:39;10.13;;;7.80;;
26600;SDS011;14241;49.260;10.496;2024-02-14T00:46:04;8.88;;;7.53;;
26600;SDS011;14241;49.260;10.496;2024-02-14T00:48:31;13.18;;;7.40;;
26600;SDS011;14241;49.260;10.496;2024-02-14T00:50:56;10.85;;;7.22;;
26600;SDS011;14241;49.260;10.496;2024-02-14T00:53:22;11.07;;;8.60;;
26600;SDS011;14241;49.260;10.496;2024-02-14T00:55:47;12.57;;;8.82;;
26600;SDS011;14241;49.260;10.496;2024-02-14T00:58:12;12.38;;;7.95;;
26600;SDS011;14241;49.260;10.496;2024-02-14T01:00:38;12.13;;;7.65;;
26600;SDS011;14241;49.260;10.496;2024-02-14T01:03:03;12.07;;;8.30;;
26600;SDS011;14241;49.260;10.496;2024-02-14T01:05:28;8.73;;;7.50;;
26600;SDS011;14241;49.260;10.496;2024-02-14T01:07:53;10.98;;;8.88;;
26600;SDS011;14241;49.260;10.496;2024-02-14T01:10:19;8.93;;;7.82;;
26600;SDS011;14241;49.260;10.496;2024-02-14T01:12:44;10.52;;;8.20;;
26600;SDS011;14241;49.260;10.496;2024-02-14T01:15:09;11.65;;;8.50;;
26600;SDS011;14241;49.260;10.496;2024-02-14T01:17:35;12.27;;;7.70;;
26600;SDS011;14241;49.260;10.496;2024-02-14T01:20:01;11.30;;;7.97;;
26600;SDS011;14241;49.260;10.496;2024-02-14T01:22:26;10.05;;;8.70;;
26600;SDS011;14241;49.260;10.496;2024-02-14T01:25:03;10.75;;;8.10;;
26600;SDS011;14241;49.260;10.496;2024-02-14T01:27:30;10.80;;;8.63;;
26600;SDS011;14241;49.260;10.496;2024-02-14T01:29:55;11.27;;;8.65;;
26600;SDS011;14241;49.260;10.496;2024-02-14T01:32:22;12.13;;;8.68;;
26600;SDS011;14241;49.260;10.496;2024-02-14T01:34:47;9.93;;;8.73;;
26600;SDS011;14241;49.260;10.496;2024-02-14T01:37:13;12.25;;;9.07;;
26600;SDS011;14241;49.260;10.496;2024-02-14T01:39:39;11.18;;;8.85;;
26600;SDS011;14241;49.260;10.496;2024-02-14T01:42:04;12.35;;;9.15;;
26600;SDS011;14241;49.260;10.496;2024-02-14T01:44:32;11.38;;;8.93;;
26600;SDS011;14241;49.260;10.496;2024-02-14T01:46:57;11.10;;;9.00;;
26600;SDS011;14241;49.260;10.496;2024-02-14T01:49:23;9.77;;;8.68;;
26600;SDS011;14241;49.260;10.496;2024-02-14T01:51:49;13.55;;;9.40;;
26600;SDS011;14241;49.260;10.496;2024-02-14T01:54:14;11.00;;;9.25;;
26600;SDS011;14241;49.260;10.496;2024-02-14T01:56:41;10.48;;;9.18;;
26600;SDS011;14241;49.260;10.496;2024-02-14T01:59:07;13.27;;;9.65;;
26600;SDS011;14241;49.260;10.496;2024-02-14T02:01:34;11.70;;;9.15;;
26600;SDS011;14241;49.260;10.496;2024-02-14T02:03:59;11.55;;;9.52;;
26600;SDS011;14241;49.260;10.496;2024-02-14T02:06:24;12.98;;;9.73;;
26600;SDS011;14241;49.260;10.496;2024-02-14T02:08:51;13.18;;;10.88;;
26600;SDS011;14241;49.260;10.496;2024-02-14T02:11:17;12.30;;;9.43;;
26600;SDS011;14241;49.260;10.496;2024-02-14T02:14:02;13.07;;;9.75;;
26600;SDS011;14241;49.260;10.496;2024-02-14T02:16:48;11.23;;;9.48;;
26600;SDS011;14241;49.260;10.496;2024-02-14T02:19:34;12.52;;;9.60;;
26600;SDS011;14241;49.260;10.496;2024-02-14T02:22:19;12.18;;;10.02;;
26600;SDS011;14241;49.260;10.496;2024-02-14T02:25:02;11.35;;;9.90;;
26600;SDS011;14241;49.260;10.496;2024-02-14T02:27:31;11.82;;;9.50;;
26600;SDS011;14241;49.260;10.496;2024-02-14T02:30:16;12.02;;;9.45;;
26600;SDS011;14241;49.260;10.496;2024-02-14T02:32:42;13.55;;;9.68;;
26600;SDS011;14241;49.260;10.496;2024-02-14T02:35:08;17.83;;;10.23;;
26600;SDS011;14241;49.260;10.496;2024-02-14T02:37:54;12.93;;;9.93;;
26600;SDS011;14241;49.260;10.496;2024-02-14T02:40:39;17.05;;;9.75;;
26600;SDS011;14241;49.260;10.496;2024-02-14T02:43:25;15.05;;;9.77;;
26600;SDS011;14241;49.260;10.496;2024-02-14T02:46:10;11.20;;;10.00;;
26600;SDS011;14241;49.260;10.496;2024-02-14T02:48:58;13.57;;;9.65;;
26600;SDS011;14241;49.260;10.496;2024-02-14T02:51:24;12.65;;;10.10;;
26600;SDS011;14241;49.260;10.496;2024-02-14T02:54:09;12.93;;;9.00;;
26600;SDS011;14241;49.260;10.496;2024-02-14T02:56:56;10.98;;;9.05;;
26600;SDS011;14241;49.260;10.496;2024-02-14T02:59:21;11.80;;;9.93;;
26600;SDS011;14241;49.260;10.496;2024-02-14T03:01:47;11.63;;;9.10;;
26600;SDS011;14241;49.260;10.496;2024-02-14T03:04:33;11.23;;;10.00;;
26600;SDS011;14241;49.260;10.496;2024-02-14T03:07:14;12.20;;;10.00;;
26600;SDS011;14241;49.260;10.496;2024-02-14T03:10:00;11.25;;;9.48;;
26600;SDS011;14241;49.260;10.496;2024-02-14T03:12:46;12.18;;;10.63;;
26600;SDS011;14241;49.260;10.496;2024-02-14T03:15:32;13.32;;;9.98;;
26600;SDS011;14241;49.260;10.496;2024-02-14T03:17:57;14.70;;;11.13;;
26600;SDS011;14241;49.260;10.496;2024-02-14T03:20:23;15.55;;;11.73;;
26600;SDS011;14241;49.260;10.496;2024-02-14T03:22:48;13.30;;;11.43;;
26600;SDS011;14241;49.260;10.496;2024-02-14T03:25:15;14.20;;;12.10;;
26600;SDS011;14241;49.260;10.496;2024-02-14T03:27:50;15.70;;;11.32;;
26600;SDS011;14241;49.260;10.496;2024-02-14T03:30:18;16.00;;;12.73;;
26600;SDS011;14241;49.260;10.496;2024-02-14T03:32:43;16.63;;;12.52;;
26600;SDS011;14241;49.260;10.496;2024-02-14T03:35:09;14.90;;;11.93;;
26600;SDS011;14241;49.260;10.496;2024-02-14T03:37:36;14.65;;;11.27;;
26600;SDS011;14241;49.260;10.496;2024-02-14T03:40:03;16.95;;;11.73;;
26600;SDS011;14241;49.260;10.496;2024-02-14T03:42:29;13.80;;;11.38;;
26600;SDS011;14241;49.260;10.496;2024-02-14T03:44:54;13.82;;;12.00;;
26600;SDS011;14241;49.260;10.496;2024-02-14T03:47:29;12.20;;;10.90;;
26600;SDS011;14241;49.260;10.496;2024-02-14T03:49:56;13.70;;;11.35;;
26600;SDS011;14241;49.260;10.496;2024-02-14T03:52:21;15.55;;;11.18;;
26600;SDS011;14241;49.260;10.496;2024-02-14T03:54:47;14.90;;;12.23;;
26600;SDS011;14241;49.260;10.496;2024-02-14T03:57:13;16.65;;;12.60;;
26600;SDS011;14241;49.260;10.496;2024-02-14T03:59:38;13.32;;;11.95;;
26600;SDS011;14241;49.260;10.496;2024-02-14T04:02:04;18.50;;;13.75;;
26600;SDS011;14241;49.260;10.496;2024-02-14T04:04:30;13.93;;;11.82;;
26600;SDS011;14241;49.260;10.496;2024-02-14T04:06:56;16.67;;;11.73;;
26600;SDS011;14241;49.260;10.496;2024-02-14T04:09:23;14.10;;;11.60;;
26600;SDS011;14241;49.260;10.496;2024-02-14T04:11:48;16.27;;;12.15;;
26600;SDS011;14241;49.260;10.496;2024-02-14T04:14:15;13.02;;;11.68;;
26600;SDS011;14241;49.260;10.496;2024-02-14T04:16:40;18.13;;;12.77;;
26600;SDS011;14241;49.260;10.496;2024-02-14T04:19:06;13.43;;;11.73;;
26600;SDS011;14241;49.260;10.496;2024-02-14T04:21:32;15.77;;;13.13;;
26600;SDS011;14241;49.260;10.496;2024-02-14T04:23:58;17.42;;;13.38;;
26600;SDS011;14241;49.260;10.496;2024-02-14T04:26:23;16.60;;;12.80;;
26600;SDS011;14241;49.260;10.496;2024-02-14T04:28:49;14.55;;;13.15;;
26600;SDS011;14241;49.260;10.496;2024-02-14T04:31:14;16.30;;;13.68;;
26600;SDS011;14241;49.260;10.496;2024-02-14T04:33:48;16.02;;;14.13;;
26600;SDS011;14241;49.260;10.496;2024-02-14T04:36:19;18.23;;;14.32;;
26600;SDS011;14241;49.260;10.496;2024-02-14T04:38:46;19.38;;;14.65;;
26600;SDS011;14241;49.260;10.496;2024-02-14T04:41:11;16.63;;;14.90;;
26600;SDS011;14241;49.260;10.496;2024-02-14T04:43:37;18.02;;;14.80;;
26600;SDS011;14241;49.260;10.496;2024-02-14T04:46:02;19.00;;;14.57;;
26600;SDS011;14241;49.260;10.496;2024-02-14T04:48:32;16.33;;;14.63;;
26600;SDS011;14241;49.260;10.496;2024-02-14T04:50:57;19.45;;;14.73;;
26600;SDS011;14241;49.260;10.496;2024-02-14T04:53:22;17.38;;;14.77;;
26600;SDS011;14241;49.260;10.496;2024-02-14T04:55:47;20.83;;;16.13;;
26600;SDS011;14241;49.260;10.496;2024-02-14T04:58:13;17.40;;;15.05;;
26600;SDS011;14241;49.260;10.496;2024-02-14T05:00:38;19.30;;;15.13;;
26600;SDS011;14241;49.260;10.496;2024-02-14T05:03:04;16.33;;;14.63;;
26600;SDS011;14241;49.260;10.496;2024-02-14T05:05:30;16.98;;;14.77;;
26600;SDS011;14241;49.260;10.496;2024-02-14T05:07:58;19.08;;;14.75;;
26600;SDS011;14241;49.260;10.496;2024-02-14T05:10:23;17.73;;;15.45;;
26600;SDS011;14241;49.260;10.496;2024-02-14T05:12:48;17.90;;;14.10;;
26600;SDS011;14241;49.260;10.496;2024-02-14T05:15:14;17.13;;;13.60;;
26600;SDS011;14241;49.260;10.496;2024-02-14T05:17:41;14.77;;;13.23;;
26600;SDS011;14241;49.260;10.496;2024-02-14T05:20:07;17.65;;;13.45;;
26600;SDS011;14241;49.260;10.496;2024-02-14T05:22:35;15.63;;;12.73;;
26600;SDS011;14241;49.260;10.496;2024-02-14T05:25:00;14.95;;;12.75;;
26600;SDS011;14241;49.260;10.496;2024-02-14T05:27:26;14.85;;;12.68;;
26600;SDS011;14241;49.260;10.496;2024-02-14T05:29:51;15.13;;;12.65;;
26600;SDS011;14241;49.260;10.496;2024-02-14T05:32:16;18.70;;;12.50;;
26600;SDS011;14241;49.260;10.496;2024-02-14T05:34:41;15.20;;;13.30;;
26600;SDS011;14241;49.260;10.496;2024-02-14T05:37:07;15.00;;;12.68;;
26600;SDS011;14241;49.260;10.496;2024-02-14T05:39:33;15.35;;;13.00;;
26600;SDS011;14241;49.260;10.496;2024-02-14T05:41:59;15.13;;;12.75;;
26600;SDS011;14241;49.260;10.496;2024-02-14T05:44:24;13.93;;;12.55;;
26600;SDS011;14241;49.260;10.496;2024-02-14T05:46:51;13.13;;;11.77;;
26600;SDS011;14241;49.260;10.496;2024-02-14T05:49:16;16.75;;;12.02;;
26600;SDS011;14241;49.260;10.496;2024-02-14T05:51:42;17.90;;;11.35;;
26600;SDS011;14241;49.260;10.496;2024-02-14T05:54:07;15.55;;;12.10;;
26600;SDS011;14241;49.260;10.496;2024-02-14T05:56:32;12.88;;;11.55;;
26600;SDS011;14241;49.260;10.496;2024-02-14T05:58:58;13.93;;;11.82;;
26600;SDS011;14241;49.260;10.496;2024-02-14T06:01:23;14.40;;;12.02;;
26600;SDS011;14241;49.260;10.496;2024-02-14T06:03:48;14.43;;;10.98;;
26600;SDS011;14241;49.260;10.496;2024-02-14T06:06:14;16.20;;;11.27;;
26600;SDS011;14241;49.260;10.496;2024-02-14T06:08:39;15.07;;;10.95;;
26600;SDS011;14241;49.260;10.496;2024-02-14T06:11:04;13.65;;;10.77;;
26600;SDS011;14241;49.260;10.496;2024-02-14T06:13:29;12.88;;;10.50;;
26600;SDS011;14241;49.260;10.496;2024-02-14T06:15:55;13.75;;;10.85;;
26600;SDS011;14241;49.260;10.496;2024-02-14T06:18:20;12.85;;;10.25;;
26600;SDS011;14241;49.260;10.496;2024-02-14T06:20:46;16.02;;;11.02;;
26600;SDS011;14241;49.260;10.496;2024-02-14T06:23:12;13.70;;;11.65;;
26600;SDS011;14241;49.260;10.496;2024-02-14T06:25:37;13.25;;;10.70;;
26600;SDS011;14241;49.260;10.496;2024-02-14T06:28:06;13.82;;;9.70;;
26600;SDS011;14241;49.260;10.496;2024-02-14T06:30:31;14.32;;;9.48;;
26600;SDS011;14241;49.260;10.496;2024-02-14T06:32:57;15.65;;;10.20;;
26600;SDS011;14241;49.260;10.496;2024-02-14T06:35:25;12.45;;;9.80;;
26600;SDS011;14241;49.260;10.496;2024-02-14T06:37:51;13.15;;;9.57;;
26600;SDS011;14241;49.260;10.496;2024-02-14T06:40:16;13.60;;;9.95;;
26600;SDS011;14241;49.260;10.496;2024-02-14T06:42:41;11.57;;;10.38;;
26600;SDS011;14241;49.260;10.496;2024-02-14T06:45:07;11.13;;;9.65;;
26600;SDS011;14241;49.260;10.496;2024-02-14T06:47:33;11.48;;;9.43;;
26600;SDS011;14241;49.260;10.496;2024-02-14T06:49:59;13.13;;;10.43;;
26600;SDS011;14241;49.260;10.496;2024-02-14T06:52:24;13.32;;;9.93;;
26600;SDS011;14241;49.260;10.496;2024-02-14T06:54:49;15.82;;;10.52;;
26600;SDS011;14241;49.260;10.496;2024-02-14T06:57:15;12.15;;;9.52;;
26600;SDS011;14241;49.260;10.496;2024-02-14T06:59:40;14.50;;;10.07;;
26600;SDS011;14241;49.260;10.496;2024-02-14T07:02:05;13.38;;;9.57;;
26600;SDS011;14241;49.260;10.496;2024-02-14T07:04:31;13.00;;;10.15;;
26600;SDS011;14241;49.260;10.496;2024-02-14T07:06:57;15.60;;;10.48;;
26600;SDS011;14241;49.260;10.496;2024-02-14T07:09:23;14.90;;;9.82;;
26600;SDS011;14241;49.260;10.496;2024-02-14T07:11:50;13.82;;;10.15;;
26600;SDS011;14241;49.260;10.496;2024-02-14T07:14:16;14.13;;;8.82;;
26600;SDS011;14241;49.260;10.496;2024-02-14T07:16:41;11.25;;;8.82;;
26600;SDS011;14241;49.260;10.496;2024-02-14T07:19:06;11.55;;;8.68;;
26600;SDS011;14241;49.260;10.496;2024-02-14T07:21:31;14.27;;;9.18;;
26600;SDS011;14241;49.260;10.496;2024-02-14T07:23:58;11.20;;;8.73;;
26600;SDS011;14241;49.260;10.496;2024-02-14T07:26:23;12.77;;;8.35;;
26600;SDS011;14241;49.260;10.496;2024-02-14T07:28:49;11.27;;;8.05;;
26600;SDS011;14241;49.260;10.496;2024-02-14T07:31:14;11.40;;;8.00;;
26600;SDS011;14241;49.260;10.496;2024-02-14T07:33:39;11.07;;;7.45;;
26600;SDS011;14241;49.260;10.496;2024-02-14T07:36:05;9.18;;;6.60;;
26600;SDS011;14241;49.260;10.496;2024-02-14T07:38:30;14.30;;;8.93;;
26600;SDS011;14241;49.260;10.496;2024-02-14T07:40:56;11.82;;;9.38;;
26600;SDS011;14241;49.260;10.496;2024-02-14T07:43:24;12.23;;;8.48;;
26600;SDS011;14241;49.260;10.496;2024-02-14T07:45:50;10.35;;;8.20;;
26600;SDS011;14241;49.260;10.496;2024-02-14T07:48:15;11.15;;;8.55;;
26600;SDS011;14241;49.260;10.496;2024-02-14T07:50:40;15.98;;;7.47;;
26600;SDS011;14241;49.260;10.496;2024-02-14T07:53:05;9.88;;;7.40;;
26600;SDS011;14241;49.260;10.496;2024-02-14T07:55:31;11.02;;;7.78;;
26600;SDS011;14241;49.260;10.496;2024-02-14T07:57:56;10.73;;;7.05;;
26600;SDS011;14241;49.260;10.496;2024-02-14T08:00:22;13.25;;;7.22;;
26600;SDS011;14241;49.260;10.496;2024-02-14T08:02:50;8.25;;;6.40;;
26600;SDS011;14241;49.260;10.496;2024-02-14T08:05:15;9.45;;;6.68;;
26600;SDS011;14241;49.260;10.496;2024-02-14T08:07:41;10.88;;;7.18;;
26600;SDS011;14241;49.260;10.496;2024-02-14T08:10:06;11.52;;;7.15;;
26600;SDS011;14241;49.260;10.496;2024-02-14T08:12:32;10.40;;;7.00;;
26600;SDS011;14241;49.260;10.496;2024-02-14T08:14:57;12.90;;;7.38;;
26600;SDS011;14241;49.260;10.496;2024-02-14T08:17:22;7.55;;;5.80;;
26600;SDS011;14241;49.260;10.496;2024-02-14T08:19:47;10.65;;;6.28;;
26600;SDS011;14241;49.260;10.496;2024-02-14T08:22:13;10.63;;;6.82;;
26600;SDS011;14241;49.260;10.496;2024-02-14T08:24:38;13.43;;;7.03;;
26600;SDS011;14241;49.260;10.496;2024-02-14T08:27:04;8.65;;;6.43;;
26600;SDS011;14241;49.260;10.496;2024-02-14T08:29:32;8.77;;;5.85;;
26600;SDS011;14241;49.260;10.496;2024-02-14T08:31:57;7.25;;;5.22;;
26600;SDS011;14241;49.260;10.496;2024-02-14T08:34:22;7.53;;;4.40;;
26600;SDS011;14241;49.260;10.496;2024-02-14T08:36:47;5.75;;;3.90;;
26600;SDS011;14241;49.260;10.496;2024-02-14T08:39:13;10.13;;;4.07;;
26600;SDS011;14241;49.260;10.496;2024-02-14T08:41:38;7.93;;;3.47;;
26600;SDS011;14241;49.260;10.496;2024-02-14T08:44:05;7.90;;;3.78;;
26600;SDS011;14241;49.260;10.496;2024-02-14T08:46:30;7.32;;;3.90;;
26600;SDS011;14241;49.260;10.496;2024-02-14T08:48:56;8.00;;;3.88;;
26600;SDS011;14241;49.260;10.496;2024-02-14T08:51:21;5.45;;;3.60;;
26600;SDS011;14241;49.260;10.496;2024-02-14T08:53:47;7.10;;;3.33;;
26600;SDS011;14241;49.260;10.496;2024-02-14T08:56:12;7.25;;;3.30;;
26600;SDS011;14241;49.260;10.496;2024-02-14T08:58:38;6.70;;;2.97;;
26600;SDS011;14241;49.260;10.496;2024-02-14T09:01:03;5.15;;;2.80;;
26600;SDS011;14241;49.260;10.496;2024-02-14T09:03:29;5.63;;;3.10;;
26600;SDS011;14241;49.260;10.496;2024-02-14T09:05:56;7.65;;;3.22;;
26600;SDS011;14241;49.260;10.496;2024-02-14T09:08:22;4.55;;;2.83;;
26600;SDS011;14241;49.260;10.496;2024-02-14T09:10:49;7.90;;;3.17;;
26600;SDS011;14241;49.260;10.496;2024-02-14T09:13:14;4.75;;;3.38;;
26600;SDS011;14241;49.260;10.496;2024-02-14T09:15:39;6.05;;;3.00;;
26600;SDS011;14241;49.260;10.496;2024-02-14T09:18:05;4.85;;;2.88;;
26600;SDS011;14241;49.260;10.496;2024-02-14T09:20:30;8.43;;;3.63;;
26600;SDS011;14241;49.260;10.496;2024-02-14T09:22:56;8.05;;;4.05;;
26600;SDS011;14241;49.260;10.496;2024-02-14T09:25:23;6.90;;;3.42;;
26600;SDS011;14241;49.260;10.496;2024-02-14T09:27:49;8.05;;;3.22;;
26600;SDS011;14241;49.260;10.496;2024-02-14T09:30:14;5.00;;;3.03;;
26600;SDS011;14241;49.260;10.496;2024-02-14T09:32:42;5.80;;;2.90;;
26600;SDS011;14241;49.260;10.496;2024-02-14T09:35:07;6.65;;;3.20;;
26600;SDS011;14241;49.260;10.496;2024-02-14T09:37:33;5.05;;;2.53;;
26600;SDS011;14241;49.260;10.496;2024-02-14T09:39:58;4.72;;;2.80;;
26600;SDS011;14241;49.260;10.496;2024-02-14T09:42:38;5.07;;;2.60;;
26600;SDS011;14241;49.260;10.496;2024-02-14T09:45:07;5.63;;;3.15;;
26600;SDS011;14241;49.260;10.496;2024-02-14T09:47:33;8.88;;;2.63;;
26600;SDS011;14241;49.260;10.496;2024-02-14T09:50:00;4.55;;;2.70;;
26600;SDS011;14241;49.260;10.496;2024-02-14T09:52:26;5.00;;;2.35;;
26600;SDS011;14241;49.260;10.496;2024-02-14T09:54:51;6.50;;;2.38;;
26600;SDS011;14241;49.260;10.496;2024-02-14T09:57:17;5.22;;;2.50;;
26600;SDS011;14241;49.260;10.496;2024-02-14T09:59:43;5.20;;;3.00;;
26600;SDS011;14241;49.260;10.496;2024-02-14T10:02:09;5.50;;;2.65;;
26600;SDS011;14241;49.260;10.496;2024-02-14T10:04:35;4.28;;;2.50;;
26600;SDS011;14241;49.260;10.496;2024-02-14T10:07:01;7.28;;;2.50;;
26600;SDS011;14241;49.260;10.496;2024-02-14T10:09:26;5.18;;;3.30;;
26600;SDS011;14241;49.260;10.496;2024-02-14T10:11:53;5.90;;;3.20;;
26600;SDS011;14241;49.260;10.496;2024-02-14T10:14:19;16.20;;;8.32;;
26600;SDS011;14241;49.260;10.496;2024-02-14T10:16:44;29.80;;;14.98;;
26600;SDS011;14241;49.260;10.496;2024-02-14T10:19:16;20.77;;;11.73;;
26600;SDS011;14241;49.260;10.496;2024-02-14T10:21:42;11.82;;;6.95;;
26600;SDS011;14241;49.260;10.496;2024-02-14T10:24:07;9.75;;;2.72;;
26600;SDS011;14241;49.260;10.496;2024-02-14T10:26:34;4.40;;;2.08;;
26600;SDS011;14241;49.260;10.496;2024-02-14T10:28:59;3.53;;;2.28;;
26600;SDS011;14241;49.260;10.496;2024-02-14T10:31:25;5.10;;;2.00;;
26600;SDS011;14241;49.260;10.496;2024-02-14T10:33:51;4.13;;;2.10;;
26600;SDS011;14241;49.260;10.496;2024-02-14T10:36:17;4.28;;;1.98;;
26600;SDS011;14241;49.260;10.496;2024-02-14T10:38:42;5.18;;;2.42;;
26600;SDS011;14241;49.260;10.496;2024-02-14T10:41:08;5.97;;;2.60;;
26600;SDS011;14241;49.260;10.496;2024-02-14T10:43:34;10.18;;;4.80;;
26600;SDS011;14241;49.260;10.496;2024-02-14T10:46:00;6.90;;;3.35;;
26600;SDS011;14241;49.260;10.496;2024-02-14T10:48:31;9.02;;;4.47;;
26600;SDS011;14241;49.260;10.496;2024-02-14T10:50:59;8.68;;;3.97;;
26600;SDS011;14241;49.260;10.496;2024-02-14T10:53:27;8.38;;;4.55;;
26600;SDS011;14241;49.260;10.496;2024-02-14T10:55:54;6.80;;;4.43;;
26600;SDS011;14241;49.260;10.496;2024-02-14T10:58:20;7.75;;;3.50;;
26600;SDS011;14241;49.260;10.496;2024-02-14T11:00:47;6.22;;;3.30;;
26600;SDS011;14241;49.260;10.496;2024-02-14T11:03:12;5.20;;;2.67;;
26600;SDS011;14241;49.260;10.496;2024-02-14T11:05:47;6.63;;;3.40;;
26600;SDS011;14241;49.260;10.496;2024-02-14T11:08:18;4.53;;;2.70;;
26600;SDS011;14241;49.260;10.496;2024-02-14T11:10:51;10.05;;;4.78;;
26600;SDS011;14241;49.260;10.496;2024-02-14T11:13:17;6.22;;;3.05;;
26600;SDS011;14241;49.260;10.496;2024-02-14T11:15:44;3.80;;;2.20;;
26600;SDS011;14241;49.260;10.496;2024-02-14T11:18:09;4.13;;;2.08;;
26600;SDS011;14241;49.260;10.496;2024-02-14T11:20:35;6.82;;;2.80;;
26600;SDS011;14241;49.260;10.496;2024-02-14T11:23:01;4.88;;;2.80;;
26600;SDS011;14241;49.260;10.496;2024-02-14T11:25:31;5.30;;;3.03;;
26600;SDS011;14241;49.260;10.496;2024-02-14T11:27:57;8.15;;;3.40;;
26600;SDS011;14241;49.260;10.496;2024-02-14T11:30:26;8.32;;;3.50;;
26600;SDS011;14241;49.260;10.496;2024-02-14T11:32:53;9.52;;;4.43;;
26600;SDS011;14241;49.260;10.496;2024-02-14T11:35:18;3.47;;;1.92;;
26600;SDS011;14241;49.260;10.496;2024-02-14T11:37:44;4.60;;;2.10;;
26600;SDS011;14241;49.260;10.496;2024-02-14T11:40:16;4.43;;;2.40;;
26600;SDS011;14241;49.260;10.496;2024-02-14T11:42:44;6.15;;;2.90;;
26600;SDS011;14241;49.260;10.496;2024-02-14T11:45:13;4.43;;;1.80;;
26600;SDS011;14241;49.260;10.496;2024-02-14T11:47:38;6.65;;;2.22;;
26600;SDS011;14241;49.260;10.496;2024-02-14T11:50:03;4.72;;;2.50;;
26600;SDS011;14241;49.260;10.496;2024-02-14T11:52:30;3.50;;;2.00;;
26600;SDS011;14241;49.260;10.496;2024-02-14T11:54:55;9.57;;;5.22;;
26600;SDS011;14241;49.260;10.496;2024-02-14T11:57:22;7.03;;;4.80;;
26600;SDS011;14241;49.260;10.496;2024-02-14T11:59:51;8.95;;;5.70;;
26600;SDS011;14241;49.260;10.496;2024-02-14T12:02:18;5.30;;;3.35;;
26600;SDS011;14241;49.260;10.496;2024-02-14T12:04:44;9.27;;;5.43;;
26600;SDS011;14241;49.260;10.496;2024-02-14T12:07:10;5.68;;;2.72;;
26600;SDS011;14241;49.260;10.496;2024-02-14T12:09:35;2.78;;;1.60;;
26600;SDS011;14241;49.260;10.496;2024-02-14T12:12:01;2.00;;;1.35;;
26600;SDS011;14241;49.260;10.496;2024-02-14T12:14:26;3.30;;;1.48;;
26600;SDS011;14241;49.260;10.496;2024-02-14T12:16:56;4.47;;;1.70;;
26600;SDS011;14241;49.260;10.496;2024-02-14T12:19:21;3.55;;;1.92;;
26600;SDS011;14241;49.260;10.496;2024-02-14T12:21:46;2.30;;;1.60;;
26600;SDS011;14241;49.260;10.496;2024-02-14T12:24:13;2.88;;;1.52;;
26600;SDS011;14241;49.260;10.496;2024-02-14T12:26:39;2.58;;;1.45;;
26600;SDS011;14241;49.260;10.496;2024-02-14T12:29:05;5.07;;;1.70;;
26600;SDS011;14241;49.260;10.496;2024-02-14T12:31:32;2.55;;;1.60;;
26600;SDS011;14241;49.260;10.496;2024-02-14T12:33:58;7.53;;;1.92;;
26600;SDS011;14241;49.260;10.496;2024-02-14T12:36:25;3.25;;;1.40;;
26600;SDS011;14241;49.260;10.496;2024-02-14T12:38:51;2.53;;;1.13;;
26600;SDS011;14241;49.260;10.496;2024-02-14T12:41:18;3.95;;;1.58;;
26600;SDS011;14241;49.260;10.496;2024-02-14T12:43:43;2.33;;;1.40;;
26600;SDS011;14241;49.260;10.496;2024-02-14T12:46:08;1.75;;;1.27;;
26600;SDS011;14241;49.260;10.496;2024-02-14T12:48:34;2.53;;;1.48;;
26600;SDS011;14241;49.260;10.496;2024-02-14T12:50:59;1.50;;;1.35;;
26600;SDS011;14241;49.260;10.496;2024-02-14T12:53:25;2.20;;;1.50;;
26600;SDS011;14241;49.260;10.496;2024-02-14T12:55:50;4.00;;;1.60;;
26600;SDS011;14241;49.260;10.496;2024-02-14T12:58:15;5.10;;;1.70;;
26600;SDS011;14241;49.260;10.496;2024-02-14T13:00:41;3.55;;;1.80;;
26600;SDS011;14241;49.260;10.496;2024-02-14T13:03:07;6.18;;;1.60;;
26600;SDS011;14241;49.260;10.496;2024-02-14T13:05:34;3.13;;;1.50;;
26600;SDS011;14241;49.260;10.496;2024-02-14T13:08:00;2.22;;;1.65;;
26600;SDS011;14241;49.260;10.496;2024-02-14T13:10:26;3.63;;;1.48;;
26600;SDS011;14241;49.260;10.496;2024-02-14T13:12:51;4.28;;;1.60;;
26600;SDS011;14241;49.260;10.496;2024-02-14T13:15:17;2.85;;;1.40;;
26600;SDS011;14241;49.260;10.496;2024-02-14T13:17:42;2.92;;;1.33;;
26600;SDS011;14241;49.260;10.496;2024-02-14T13:20:08;5.53;;;1.30;;
26600;SDS011;14241;49.260;10.496;2024-02-14T13:22:33;2.58;;;1.50;;
26600;SDS011;14241;49.260;10.496;2024-02-14T13:24:58;2.28;;;1.38;;
26600;SDS011;14241;49.260;10.496;2024-02-14T13:27:25;2.60;;;1.40;;
26600;SDS011;14241;49.260;10.496;2024-02-14T13:29:51;2.35;;;1.30;;
26600;SDS011;14241;49.260;10.496;2024-02-14T13:32:16;3.35;;;1.45;;
26600;SDS011;14241;49.260;10.496;2024-02-14T13:34:42;3.00;;;1.15;;
26600;SDS011;14241;49.260;10.496;2024-02-14T13:37:09;2.55;;;1.42;;
26600;SDS011;14241;49.260;10.496;2024-02-14T13:39:34;1.77;;;1.30;;
26600;SDS011;14241;49.260;10.496;2024-02-14T13:41:59;2.00;;;1.15;;
26600;SDS011;14241;49.260;10.496;2024-02-14T13:44:26;3.50;;;1.90;;
26600;SDS011;14241;49.260;10.496;2024-02-14T13:46:51;3.88;;;1.50;;
26600;SDS011;14241;49.260;10.496;2024-02-14T13:49:18;1.65;;;1.30;;
26600;SDS011;14241;49.260;10.496;2024-02-14T13:51:48;2.92;;;1.30;;
26600;SDS011;14241;49.260;10.496;2024-02-14T13:54:13;2.83;;;1.40;;
26600;SDS011;14241;49.260;10.496;2024-02-14T13:56:39;2.90;;;1.50;;
26600;SDS011;14241;49.260;10.496;2024-02-14T13:59:05;3.95;;;1.70;;
26600;SDS011;14241;49.260;10.496;2024-02-14T14:01:30;4.07;;;1.48;;
26600;SDS011;14241;49.260;10.496;2024-02-14T14:03:56;1.83;;;1.27;;
26600;SDS011;14241;49.260;10.496;2024-02-14T14:06:23;3.72;;;1.63;;
26600;SDS011;14241;49.260;10.496;2024-02-14T14:08:49;2.97;;;1.30;;
26600;SDS011;14241;49.260;10.496;2024-02-14T14:11:15;3.05;;;1.40;;
26600;SDS011;14241;49.260;10.496;2024-02-14T14:13:40;2.25;;;1.30;;
26600;SDS011;14241;49.260;10.496;2024-02-14T14:16:05;2.03;;;1.52;;
26600;SDS011;14241;49.260;10.496;2024-02-14T14:18:31;1.85;;;1.30;;
26600;SDS011;14241;49.260;10.496;2024-02-14T14:20:57;2.90;;;1.35;;
26600;SDS011;14241;49.260;10.496;2024-02-14T14:23:23;2.70;;;1.35;;